sensor_id;sensor_type;location;lat;lon;timestamp;P1;durP1;ratioP1;P2;durP2;ratioP2
77788;SDS011;70537;44.384;0.512;2023-11-19T00:00:05;10.80;;;5.93;;
77788;SDS011;70537;44.384;0.512;2023-11-19T00:02:31;10.07;;;6.10;;
77788;SDS011;70537;44.384;0.512;2023-11-19T00:04:57;9.25;;;6.20;;
77788;SDS011;70537;44.384;0.512;2023-11-19T00:07:23;9.45;;;5.30;;
77788;SDS011;70537;44.384;0.512;2023-11-19T00:09:48;12.63;;;6.22;;
77788;SDS011;70537;44.384;0.512;2023-11-19T00:12:14;10.32;;;6.50;;
77788;SDS011;70537;44.384;0.512;2023-11-19T00:14:41;9.45;;;5.35;;
77788;SDS011;70537;44.384;0.512;2023-11-19T00:17:06;13.77;;;6.43;;
77788;SDS011;70537;44.384;0.512;2023-11-19T00:19:31;13.30;;;7.57;;
77788;SDS011;70537;44.384;0.512;2023-11-19T00:21:57;11.55;;;7.93;;
77788;SDS011;70537;44.384;0.512;2023-11-19T00:24:27;14.10;;;7.68;;
77788;SDS011;70537;44.384;0.512;2023-11-19T00:26:53;12.57;;;7.25;;
77788;SDS011;70537;44.384;0.512;2023-11-19T00:29:18;14.35;;;7.15;;
77788;SDS011;70537;44.384;0.512;2023-11-19T00:31:45;17.85;;;7.55;;
77788;SDS011;70537;44.384;0.512;2023-11-19T00:34:10;12.63;;;6.90;;
77788;SDS011;70537;44.384;0.512;2023-11-19T00:36:36;10.30;;;6.15;;
77788;SDS011;70537;44.384;0.512;2023-11-19T00:39:01;13.23;;;6.30;;
77788;SDS011;70537;44.384;0.512;2023-11-19T00:41:26;14.20;;;6.53;;
77788;SDS011;70537;44.384;0.512;2023-11-19T00:43:52;13.50;;;6.72;;
77788;SDS011;70537;44.384;0.512;2023-11-19T00:46:17;9.45;;;6.45;;
77788;SDS011;70537;44.384;0.512;2023-11-19T00:48:42;8.13;;;4.93;;
77788;SDS011;70537;44.384;0.512;2023-11-19T00:51:08;9.65;;;6.22;;
77788;SDS011;70537;44.384;0.512;2023-11-19T00:53:33;10.43;;;5.72;;
77788;SDS011;70537;44.384;0.512;2023-11-19T00:55:59;10.15;;;6.25;;
77788;SDS011;70537;44.384;0.512;2023-11-19T00:58:24;8.82;;;5.20;;
77788;SDS011;70537;44.384;0.512;2023-11-19T01:00:49;8.18;;;5.15;;
77788;SDS011;70537;44.384;0.512;2023-11-19T01:03:15;8.60;;;4.72;;
77788;SDS011;70537;44.384;0.512;2023-11-19T01:05:43;10.55;;;6.28;;
77788;SDS011;70537;44.384;0.512;2023-11-19T01:08:09;11.30;;;6.78;;
77788;SDS011;70537;44.384;0.512;2023-11-19T01:10:36;8.98;;;6.90;;
77788;SDS011;70537;44.384;0.512;2023-11-19T01:13:02;11.82;;;6.22;;
77788;SDS011;70537;44.384;0.512;2023-11-19T01:15:28;13.70;;;6.38;;
77788;SDS011;70537;44.384;0.512;2023-11-19T01:17:53;10.73;;;5.15;;
77788;SDS011;70537;44.384;0.512;2023-11-19T01:20:19;9.30;;;6.50;;
77788;SDS011;70537;44.384;0.512;2023-11-19T01:22:45;6.93;;;4.90;;
77788;SDS011;70537;44.384;0.512;2023-11-19T01:25:10;8.80;;;5.13;;
77788;SDS011;70537;44.384;0.512;2023-11-19T01:27:35;15.88;;;5.93;;
77788;SDS011;70537;44.384;0.512;2023-11-19T01:30:01;10.80;;;6.35;;
77788;SDS011;70537;44.384;0.512;2023-11-19T01:32:31;8.02;;;5.95;;
77788;SDS011;70537;44.384;0.512;2023-11-19T01:34:56;12.05;;;6.38;;
77788;SDS011;70537;44.384;0.512;2023-11-19T01:37:21;14.52;;;6.20;;
77788;SDS011;70537;44.384;0.512;2023-11-19T01:39:47;14.27;;;6.15;;
77788;SDS011;70537;44.384;0.512;2023-11-19T01:42:12;9.95;;;5.00;;
77788;SDS011;70537;44.384;0.512;2023-11-19T01:44:38;12.50;;;5.78;;
77788;SDS011;70537;44.384;0.512;2023-11-19T01:47:03;8.38;;;5.40;;
77788;SDS011;70537;44.384;0.512;2023-11-19T01:49:30;13.05;;;5.68;;
77788;SDS011;70537;44.384;0.512;2023-11-19T01:51:55;13.95;;;6.18;;
77788;SDS011;70537;44.384;0.512;2023-11-19T01:54:22;12.45;;;6.18;;
77788;SDS011;70537;44.384;0.512;2023-11-19T01:56:47;13.00;;;6.55;;
77788;SDS011;70537;44.384;0.512;2023-11-19T01:59:13;8.02;;;5.07;;
77788;SDS011;70537;44.384;0.512;2023-11-19T02:01:38;8.95;;;6.00;;
77788;SDS011;70537;44.384;0.512;2023-11-19T02:04:05;11.60;;;5.80;;
77788;SDS011;70537;44.384;0.512;2023-11-19T02:06:31;11.52;;;5.43;;
77788;SDS011;70537;44.384;0.512;2023-11-19T02:08:57;10.45;;;5.07;;
77788;SDS011;70537;44.384;0.512;2023-11-19T02:11:23;10.95;;;5.72;;
77788;SDS011;70537;44.384;0.512;2023-11-19T02:13:49;8.18;;;5.60;;
77788;SDS011;70537;44.384;0.512;2023-11-19T02:16:14;7.85;;;4.53;;
77788;SDS011;70537;44.384;0.512;2023-11-19T02:18:39;13.43;;;5.60;;
77788;SDS011;70537;44.384;0.512;2023-11-19T02:21:05;14.10;;;5.97;;
77788;SDS011;70537;44.384;0.512;2023-11-19T02:23:30;13.63;;;6.10;;
77788;SDS011;70537;44.384;0.512;2023-11-19T02:28:21;28.80;;;7.20;;
77788;SDS011;70537;44.384;0.512;2023-11-19T02:30:47;12.63;;;5.43;;
77788;SDS011;70537;44.384;0.512;2023-11-19T02:33:12;15.60;;;7.50;;
77788;SDS011;70537;44.384;0.512;2023-11-19T02:35:37;24.95;;;6.35;;
77788;SDS011;70537;44.384;0.512;2023-11-19T02:38:03;18.42;;;6.03;;
77788;SDS011;70537;44.384;0.512;2023-11-19T02:40:32;19.40;;;6.43;;
77788;SDS011;70537;44.384;0.512;2023-11-19T02:42:57;34.37;;;6.97;;
77788;SDS011;70537;44.384;0.512;2023-11-19T02:45:23;19.13;;;7.88;;
77788;SDS011;70537;44.384;0.512;2023-11-19T02:47:49;13.05;;;6.43;;
77788;SDS011;70537;44.384;0.512;2023-11-19T02:50:14;14.88;;;6.45;;
77788;SDS011;70537;44.384;0.512;2023-11-19T02:52:43;10.38;;;5.82;;
77788;SDS011;70537;44.384;0.512;2023-11-19T02:55:11;12.27;;;7.70;;
77788;SDS011;70537;44.384;0.512;2023-11-19T02:57:38;21.35;;;7.30;;
77788;SDS011;70537;44.384;0.512;2023-11-19T03:00:06;17.00;;;5.80;;
77788;SDS011;70537;44.384;0.512;2023-11-19T03:02:39;13.05;;;5.18;;
77788;SDS011;70537;44.384;0.512;2023-11-19T03:05:09;11.95;;;6.13;;
77788;SDS011;70537;44.384;0.512;2023-11-19T03:07:35;17.95;;;5.40;;
77788;SDS011;70537;44.384;0.512;2023-11-19T03:10:00;11.77;;;5.68;;
77788;SDS011;70537;44.384;0.512;2023-11-19T03:12:25;10.63;;;5.63;;
77788;SDS011;70537;44.384;0.512;2023-11-19T03:14:51;6.22;;;4.45;;
77788;SDS011;70537;44.384;0.512;2023-11-19T03:17:16;10.15;;;5.03;;
77788;SDS011;70537;44.384;0.512;2023-11-19T03:19:42;10.63;;;4.80;;
77788;SDS011;70537;44.384;0.512;2023-11-19T03:22:07;7.95;;;5.10;;
77788;SDS011;70537;44.384;0.512;2023-11-19T03:24:32;5.90;;;5.07;;
77788;SDS011;70537;44.384;0.512;2023-11-19T03:26:58;9.73;;;5.03;;
77788;SDS011;70537;44.384;0.512;2023-11-19T03:29:23;8.38;;;5.20;;
77788;SDS011;70537;44.384;0.512;2023-11-19T03:31:48;10.05;;;5.05;;
77788;SDS011;70537;44.384;0.512;2023-11-19T03:34:15;10.98;;;5.80;;
77788;SDS011;70537;44.384;0.512;2023-11-19T03:36:40;11.75;;;5.55;;
77788;SDS011;70537;44.384;0.512;2023-11-19T03:39:06;7.30;;;5.35;;
77788;SDS011;70537;44.384;0.512;2023-11-19T03:41:31;9.05;;;5.40;;
77788;SDS011;70537;44.384;0.512;2023-11-19T03:43:57;12.07;;;5.05;;
77788;SDS011;70537;44.384;0.512;2023-11-19T03:46:22;10.50;;;5.50;;
77788;SDS011;70537;44.384;0.512;2023-11-19T03:48:48;12.95;;;5.35;;
77788;SDS011;70537;44.384;0.512;2023-11-19T03:51:14;7.78;;;4.18;;
77788;SDS011;70537;44.384;0.512;2023-11-19T03:53:46;11.82;;;5.45;;
77788;SDS011;70537;44.384;0.512;2023-11-19T03:56:12;10.90;;;5.43;;
77788;SDS011;70537;44.384;0.512;2023-11-19T03:58:38;10.57;;;5.30;;
77788;SDS011;70537;44.384;0.512;2023-11-19T04:01:04;8.20;;;4.60;;
77788;SDS011;70537;44.384;0.512;2023-11-19T04:03:29;9.60;;;5.35;;
77788;SDS011;70537;44.384;0.512;2023-11-19T04:05:54;12.25;;;5.63;;
77788;SDS011;70537;44.384;0.512;2023-11-19T04:08:20;9.82;;;6.43;;
77788;SDS011;70537;44.384;0.512;2023-11-19T04:10:45;8.68;;;5.43;;
77788;SDS011;70537;44.384;0.512;2023-11-19T04:13:10;9.10;;;6.27;;
77788;SDS011;70537;44.384;0.512;2023-11-19T04:15:35;10.18;;;5.22;;
77788;SDS011;70537;44.384;0.512;2023-11-19T04:18:01;8.00;;;5.47;;
77788;SDS011;70537;44.384;0.512;2023-11-19T04:20:26;10.15;;;4.95;;
77788;SDS011;70537;44.384;0.512;2023-11-19T04:22:51;9.65;;;4.47;;
77788;SDS011;70537;44.384;0.512;2023-11-19T04:25:18;8.57;;;4.88;;
77788;SDS011;70537;44.384;0.512;2023-11-19T04:27:44;10.25;;;5.25;;
77788;SDS011;70537;44.384;0.512;2023-11-19T04:30:10;8.88;;;4.35;;
77788;SDS011;70537;44.384;0.512;2023-11-19T04:32:36;8.18;;;4.88;;
77788;SDS011;70537;44.384;0.512;2023-11-19T04:35:01;6.50;;;4.72;;
77788;SDS011;70537;44.384;0.512;2023-11-19T04:37:26;6.82;;;4.25;;
77788;SDS011;70537;44.384;0.512;2023-11-19T04:39:52;9.38;;;4.78;;
77788;SDS011;70537;44.384;0.512;2023-11-19T04:42:17;7.65;;;4.75;;
77788;SDS011;70537;44.384;0.512;2023-11-19T04:44:43;6.25;;;4.20;;
77788;SDS011;70537;44.384;0.512;2023-11-19T04:47:08;10.52;;;4.57;;
77788;SDS011;70537;44.384;0.512;2023-11-19T04:49:36;9.20;;;4.47;;
77788;SDS011;70537;44.384;0.512;2023-11-19T04:52:04;6.10;;;4.20;;
77788;SDS011;70537;44.384;0.512;2023-11-19T04:54:30;9.38;;;5.10;;
77788;SDS011;70537;44.384;0.512;2023-11-19T04:56:55;8.18;;;4.35;;
77788;SDS011;70537;44.384;0.512;2023-11-19T04:59:20;7.03;;;4.22;;
77788;SDS011;70537;44.384;0.512;2023-11-19T05:01:46;12.40;;;4.60;;
77788;SDS011;70537;44.384;0.512;2023-11-19T05:04:11;12.77;;;4.07;;
77788;SDS011;70537;44.384;0.512;2023-11-19T05:06:37;5.18;;;3.75;;
77788;SDS011;70537;44.384;0.512;2023-11-19T05:09:02;5.07;;;3.85;;
77788;SDS011;70537;44.384;0.512;2023-11-19T05:11:35;10.68;;;4.72;;
77788;SDS011;70537;44.384;0.512;2023-11-19T05:14:02;9.13;;;4.75;;
77788;SDS011;70537;44.384;0.512;2023-11-19T05:16:29;6.85;;;4.63;;
77788;SDS011;70537;44.384;0.512;2023-11-19T05:18:54;5.70;;;4.30;;
77788;SDS011;70537;44.384;0.512;2023-11-19T05:21:19;7.85;;;4.38;;
77788;SDS011;70537;44.384;0.512;2023-11-19T05:23:45;11.35;;;4.22;;
77788;SDS011;70537;44.384;0.512;2023-11-19T05:26:21;4.53;;;4.03;;
77788;SDS011;70537;44.384;0.512;2023-11-19T05:28:47;4.55;;;3.38;;
77788;SDS011;70537;44.384;0.512;2023-11-19T05:31:12;6.45;;;4.32;;
77788;SDS011;70537;44.384;0.512;2023-11-19T05:33:38;4.40;;;3.72;;
77788;SDS011;70537;44.384;0.512;2023-11-19T05:36:04;10.90;;;4.97;;
77788;SDS011;70537;44.384;0.512;2023-11-19T05:38:29;5.07;;;4.47;;
77788;SDS011;70537;44.384;0.512;2023-11-19T05:40:55;5.15;;;4.65;;
77788;SDS011;70537;44.384;0.512;2023-11-19T05:43:20;6.00;;;4.07;;
77788;SDS011;70537;44.384;0.512;2023-11-19T05:45:46;6.07;;;4.10;;
77788;SDS011;70537;44.384;0.512;2023-11-19T05:48:11;7.47;;;4.07;;
77788;SDS011;70537;44.384;0.512;2023-11-19T05:50:37;6.43;;;3.83;;
77788;SDS011;70537;44.384;0.512;2023-11-19T05:53:02;5.75;;;3.40;;
77788;SDS011;70537;44.384;0.512;2023-11-19T05:55:30;6.63;;;4.60;;
77788;SDS011;70537;44.384;0.512;2023-11-19T05:57:56;8.05;;;3.78;;
77788;SDS011;70537;44.384;0.512;2023-11-19T06:00:21;12.00;;;5.07;;
77788;SDS011;70537;44.384;0.512;2023-11-19T06:02:46;5.80;;;3.17;;
77788;SDS011;70537;44.384;0.512;2023-11-19T06:05:12;5.22;;;3.83;;
77788;SDS011;70537;44.384;0.512;2023-11-19T06:07:37;7.50;;;4.25;;
77788;SDS011;70537;44.384;0.512;2023-11-19T06:10:04;5.05;;;3.55;;
77788;SDS011;70537;44.384;0.512;2023-11-19T06:12:32;6.57;;;4.63;;
77788;SDS011;70537;44.384;0.512;2023-11-19T06:14:59;8.80;;;4.63;;
77788;SDS011;70537;44.384;0.512;2023-11-19T06:17:24;5.75;;;3.47;;
77788;SDS011;70537;44.384;0.512;2023-11-19T06:19:50;5.32;;;4.35;;
77788;SDS011;70537;44.384;0.512;2023-11-19T06:22:16;8.85;;;4.32;;
77788;SDS011;70537;44.384;0.512;2023-11-19T06:24:41;7.25;;;3.75;;
77788;SDS011;70537;44.384;0.512;2023-11-19T06:27:06;7.93;;;4.88;;
77788;SDS011;70537;44.384;0.512;2023-11-19T06:29:32;6.70;;;4.00;;
77788;SDS011;70537;44.384;0.512;2023-11-19T06:31:57;6.82;;;4.65;;
77788;SDS011;70537;44.384;0.512;2023-11-19T06:34:22;8.73;;;4.28;;
77788;SDS011;70537;44.384;0.512;2023-11-19T06:36:48;5.70;;;3.85;;
77788;SDS011;70537;44.384;0.512;2023-11-19T06:39:13;7.20;;;4.03;;
77788;SDS011;70537;44.384;0.512;2023-11-19T06:41:44;5.18;;;3.88;;
77788;SDS011;70537;44.384;0.512;2023-11-19T06:44:09;9.23;;;3.80;;
77788;SDS011;70537;44.384;0.512;2023-11-19T06:46:34;6.40;;;3.35;;
77788;SDS011;70537;44.384;0.512;2023-11-19T06:49:00;6.45;;;3.47;;
77788;SDS011;70537;44.384;0.512;2023-11-19T06:51:26;13.18;;;4.22;;
77788;SDS011;70537;44.384;0.512;2023-11-19T06:53:51;6.38;;;3.53;;
77788;SDS011;70537;44.384;0.512;2023-11-19T06:56:20;4.05;;;3.28;;
77788;SDS011;70537;44.384;0.512;2023-11-19T06:58:46;4.78;;;3.15;;
77788;SDS011;70537;44.384;0.512;2023-11-19T07:01:12;6.20;;;2.92;;
77788;SDS011;70537;44.384;0.512;2023-11-19T07:03:38;8.88;;;3.22;;
77788;SDS011;70537;44.384;0.512;2023-11-19T07:06:03;4.18;;;2.80;;
77788;SDS011;70537;44.384;0.512;2023-11-19T07:08:30;6.47;;;3.22;;
77788;SDS011;70537;44.384;0.512;2023-11-19T07:10:56;9.20;;;3.67;;
77788;SDS011;70537;44.384;0.512;2023-11-19T07:13:21;5.18;;;3.10;;
77788;SDS011;70537;44.384;0.512;2023-11-19T07:15:46;6.32;;;3.00;;
77788;SDS011;70537;44.384;0.512;2023-11-19T07:18:12;4.07;;;2.67;;
77788;SDS011;70537;44.384;0.512;2023-11-19T07:20:37;6.05;;;3.83;;
77788;SDS011;70537;44.384;0.512;2023-11-19T07:23:03;10.82;;;2.67;;
77788;SDS011;70537;44.384;0.512;2023-11-19T07:25:28;19.75;;;9.50;;
77788;SDS011;70537;44.384;0.512;2023-11-19T07:27:54;4.77;;;2.77;;
77788;SDS011;70537;44.384;0.512;2023-11-19T07:30:19;5.05;;;3.00;;
77788;SDS011;70537;44.384;0.512;2023-11-19T07:32:44;6.20;;;3.30;;
77788;SDS011;70537;44.384;0.512;2023-11-19T07:35:10;9.20;;;3.70;;
77788;SDS011;70537;44.384;0.512;2023-11-19T07:37:35;6.85;;;2.70;;
77788;SDS011;70537;44.384;0.512;2023-11-19T07:40:00;6.85;;;3.42;;
77788;SDS011;70537;44.384;0.512;2023-11-19T07:42:26;22.67;;;10.20;;
77788;SDS011;70537;44.384;0.512;2023-11-19T07:44:51;15.57;;;6.68;;
77788;SDS011;70537;44.384;0.512;2023-11-19T07:47:16;21.08;;;7.25;;
77788;SDS011;70537;44.384;0.512;2023-11-19T07:49:43;7.10;;;3.40;;
77788;SDS011;70537;44.384;0.512;2023-11-19T07:52:11;6.38;;;3.90;;
77788;SDS011;70537;44.384;0.512;2023-11-19T07:54:36;4.93;;;2.65;;
77788;SDS011;70537;44.384;0.512;2023-11-19T07:57:02;2.50;;;2.30;;
77788;SDS011;70537;44.384;0.512;2023-11-19T07:59:27;4.60;;;3.22;;
77788;SDS011;70537;44.384;0.512;2023-11-19T08:01:52;3.60;;;2.67;;
77788;SDS011;70537;44.384;0.512;2023-11-19T08:04:18;5.30;;;2.80;;
77788;SDS011;70537;44.384;0.512;2023-11-19T08:06:43;9.35;;;5.70;;
77788;SDS011;70537;44.384;0.512;2023-11-19T08:09:09;6.20;;;3.03;;
77788;SDS011;70537;44.384;0.512;2023-11-19T08:11:39;4.50;;;3.35;;
77788;SDS011;70537;44.384;0.512;2023-11-19T08:14:04;4.68;;;2.97;;
77788;SDS011;70537;44.384;0.512;2023-11-19T08:16:29;3.88;;;2.40;;
77788;SDS011;70537;44.384;0.512;2023-11-19T08:18:55;4.30;;;2.03;;
77788;SDS011;70537;44.384;0.512;2023-11-19T08:23:48;4.63;;;2.77;;
77788;SDS011;70537;44.384;0.512;2023-11-19T08:26:14;3.78;;;2.50;;
77788;SDS011;70537;44.384;0.512;2023-11-19T08:28:39;4.55;;;3.00;;
77788;SDS011;70537;44.384;0.512;2023-11-19T08:31:05;4.18;;;2.88;;
77788;SDS011;70537;44.384;0.512;2023-11-19T08:33:31;3.85;;;3.17;;
77788;SDS011;70537;44.384;0.512;2023-11-19T08:35:56;3.38;;;2.60;;
77788;SDS011;70537;44.384;0.512;2023-11-19T08:38:22;4.72;;;3.03;;
77788;SDS011;70537;44.384;0.512;2023-11-19T08:40:47;3.78;;;2.35;;
77788;SDS011;70537;44.384;0.512;2023-11-19T08:43:13;6.93;;;2.83;;
77788;SDS011;70537;44.384;0.512;2023-11-19T08:45:38;2.72;;;2.30;;
77788;SDS011;70537;44.384;0.512;2023-11-19T08:48:03;3.22;;;2.50;;
77788;SDS011;70537;44.384;0.512;2023-11-19T08:50:29;3.55;;;2.50;;
77788;SDS011;70537;44.384;0.512;2023-11-19T08:52:54;4.90;;;2.80;;
77788;SDS011;70537;44.384;0.512;2023-11-19T08:55:19;6.63;;;2.80;;
77788;SDS011;70537;44.384;0.512;2023-11-19T08:57:45;6.05;;;3.30;;
77788;SDS011;70537;44.384;0.512;2023-11-19T09:00:10;4.10;;;3.08;;
77788;SDS011;70537;44.384;0.512;2023-11-19T09:02:37;10.05;;;3.25;;
77788;SDS011;70537;44.384;0.512;2023-11-19T09:05:02;4.65;;;3.30;;
77788;SDS011;70537;44.384;0.512;2023-11-19T09:07:28;5.72;;;3.20;;
77788;SDS011;70537;44.384;0.512;2023-11-19T09:09:53;8.73;;;2.88;;
77788;SDS011;70537;44.384;0.512;2023-11-19T09:12:18;5.88;;;3.47;;
77788;SDS011;70537;44.384;0.512;2023-11-19T09:14:44;4.33;;;3.07;;
77788;SDS011;70537;44.384;0.512;2023-11-19T09:17:11;10.52;;;5.10;;
77788;SDS011;70537;44.384;0.512;2023-11-19T09:19:36;5.90;;;3.50;;
77788;SDS011;70537;44.384;0.512;2023-11-19T09:22:02;4.60;;;3.40;;
77788;SDS011;70537;44.384;0.512;2023-11-19T09:24:27;8.10;;;3.25;;
77788;SDS011;70537;44.384;0.512;2023-11-19T09:26:53;4.97;;;3.30;;
77788;SDS011;70537;44.384;0.512;2023-11-19T09:29:20;7.88;;;3.90;;
77788;SDS011;70537;44.384;0.512;2023-11-19T09:31:46;4.15;;;2.97;;
77788;SDS011;70537;44.384;0.512;2023-11-19T09:34:12;9.85;;;3.55;;
77788;SDS011;70537;44.384;0.512;2023-11-19T09:36:37;3.13;;;2.80;;
77788;SDS011;70537;44.384;0.512;2023-11-19T09:39:02;6.25;;;2.72;;
77788;SDS011;70537;44.384;0.512;2023-11-19T09:41:29;3.50;;;2.35;;
77788;SDS011;70537;44.384;0.512;2023-11-19T09:43:55;5.30;;;3.78;;
77788;SDS011;70537;44.384;0.512;2023-11-19T09:46:21;4.78;;;2.92;;
77788;SDS011;70537;44.384;0.512;2023-11-19T09:48:49;4.28;;;2.88;;
77788;SDS011;70537;44.384;0.512;2023-11-19T09:51:17;4.03;;;3.08;;
77788;SDS011;70537;44.384;0.512;2023-11-19T09:53:43;4.53;;;2.72;;
77788;SDS011;70537;44.384;0.512;2023-11-19T09:56:08;3.17;;;2.42;;
77788;SDS011;70537;44.384;0.512;2023-11-19T09:58:34;5.60;;;2.58;;
77788;SDS011;70537;44.384;0.512;2023-11-19T10:01:00;7.07;;;3.17;;
77788;SDS011;70537;44.384;0.512;2023-11-19T10:03:32;4.88;;;2.60;;
77788;SDS011;70537;44.384;0.512;2023-11-19T10:05:58;4.90;;;2.78;;
77788;SDS011;70537;44.384;0.512;2023-11-19T10:08:23;7.07;;;3.20;;
77788;SDS011;70537;44.384;0.512;2023-11-19T10:10:48;3.78;;;2.38;;
77788;SDS011;70537;44.384;0.512;2023-11-19T10:13:14;3.72;;;3.00;;
77788;SDS011;70537;44.384;0.512;2023-11-19T10:15:40;3.65;;;2.97;;
77788;SDS011;70537;44.384;0.512;2023-11-19T10:18:05;5.03;;;2.95;;
77788;SDS011;70537;44.384;0.512;2023-11-19T10:20:37;4.88;;;3.25;;
77788;SDS011;70537;44.384;0.512;2023-11-19T10:23:03;9.05;;;2.55;;
77788;SDS011;70537;44.384;0.512;2023-11-19T10:25:29;6.35;;;2.55;;
77788;SDS011;70537;44.384;0.512;2023-11-19T10:27:55;3.28;;;2.22;;
77788;SDS011;70537;44.384;0.512;2023-11-19T10:30:21;3.15;;;2.15;;
77788;SDS011;70537;44.384;0.512;2023-11-19T10:33:06;5.75;;;2.90;;
77788;SDS011;70537;44.384;0.512;2023-11-19T10:35:36;6.30;;;2.70;;
77788;SDS011;70537;44.384;0.512;2023-11-19T10:38:03;4.35;;;3.00;;
77788;SDS011;70537;44.384;0.512;2023-11-19T10:40:38;7.60;;;3.45;;
77788;SDS011;70537;44.384;0.512;2023-11-19T10:43:07;3.00;;;2.17;;
77788;SDS011;70537;44.384;0.512;2023-11-19T10:45:33;3.28;;;1.98;;
77788;SDS011;70537;44.384;0.512;2023-11-19T10:47:58;4.03;;;2.63;;
77788;SDS011;70537;44.384;0.512;2023-11-19T10:50:24;5.35;;;2.83;;
77788;SDS011;70537;44.384;0.512;2023-11-19T10:52:50;5.63;;;2.88;;
77788;SDS011;70537;44.384;0.512;2023-11-19T10:55:19;5.28;;;2.97;;
77788;SDS011;70537;44.384;0.512;2023-11-19T10:57:47;4.22;;;2.47;;
77788;SDS011;70537;44.384;0.512;2023-11-19T11:00:14;7.32;;;2.88;;
77788;SDS011;70537;44.384;0.512;2023-11-19T11:02:43;9.98;;;4.28;;
77788;SDS011;70537;44.384;0.512;2023-11-19T11:05:11;11.45;;;5.10;;
77788;SDS011;70537;44.384;0.512;2023-11-19T11:07:37;12.60;;;5.88;;
77788;SDS011;70537;44.384;0.512;2023-11-19T11:10:05;4.57;;;3.00;;
77788;SDS011;70537;44.384;0.512;2023-11-19T11:12:32;6.68;;;3.85;;
77788;SDS011;70537;44.384;0.512;2023-11-19T11:14:59;6.18;;;2.40;;
77788;SDS011;70537;44.384;0.512;2023-11-19T11:17:25;3.53;;;2.17;;
77788;SDS011;70537;44.384;0.512;2023-11-19T11:19:53;4.68;;;2.38;;
77788;SDS011;70537;44.384;0.512;2023-11-19T11:22:18;6.22;;;2.15;;
77788;SDS011;70537;44.384;0.512;2023-11-19T11:32:33;3.43;;;2.13;;
77788;SDS011;70537;44.384;0.512;2023-11-19T11:37:34;3.50;;;2.63;;
77788;SDS011;70537;44.384;0.512;2023-11-19T11:40:01;5.38;;;2.33;;
77788;SDS011;70537;44.384;0.512;2023-11-19T11:42:31;5.57;;;2.30;;
77788;SDS011;70537;44.384;0.512;2023-11-19T11:45:00;3.60;;;2.58;;
77788;SDS011;70537;44.384;0.512;2023-11-19T11:47:49;4.82;;;2.60;;
77788;SDS011;70537;44.384;0.512;2023-11-19T11:55:27;4.63;;;2.95;;
77788;SDS011;70537;44.384;0.512;2023-11-19T11:57:53;3.33;;;2.55;;
77788;SDS011;70537;44.384;0.512;2023-11-19T12:12:23;4.63;;;2.60;;
77788;SDS011;70537;44.384;0.512;2023-11-19T12:19:57;4.40;;;2.70;;
77788;SDS011;70537;44.384;0.512;2023-11-19T12:22:24;4.38;;;2.28;;
77788;SDS011;70537;44.384;0.512;2023-11-19T12:24:50;4.63;;;2.35;;
77788;SDS011;70537;44.384;0.512;2023-11-19T12:27:17;5.40;;;2.53;;
77788;SDS011;70537;44.384;0.512;2023-11-19T12:29:43;3.90;;;1.95;;
77788;SDS011;70537;44.384;0.512;2023-11-19T12:32:11;4.18;;;2.28;;
77788;SDS011;70537;44.384;0.512;2023-11-19T12:34:36;2.90;;;1.80;;
77788;SDS011;70537;44.384;0.512;2023-11-19T12:37:05;3.10;;;1.67;;
77788;SDS011;70537;44.384;0.512;2023-11-19T12:39:30;4.70;;;2.55;;
77788;SDS011;70537;44.384;0.512;2023-11-19T12:41:56;3.38;;;1.63;;
77788;SDS011;70537;44.384;0.512;2023-11-19T12:44:24;5.75;;;2.33;;
77788;SDS011;70537;44.384;0.512;2023-11-19T12:47:02;3.58;;;2.20;;
77788;SDS011;70537;44.384;0.512;2023-11-19T12:49:27;1.60;;;1.48;;
77788;SDS011;70537;44.384;0.512;2023-11-19T12:51:53;6.75;;;2.33;;
77788;SDS011;70537;44.384;0.512;2023-11-19T12:54:18;2.67;;;1.40;;
77788;SDS011;70537;44.384;0.512;2023-11-19T12:56:52;3.08;;;1.85;;
77788;SDS011;70537;44.384;0.512;2023-11-19T12:59:18;2.38;;;1.50;;
77788;SDS011;70537;44.384;0.512;2023-11-19T13:01:56;2.17;;;1.73;;
77788;SDS011;70537;44.384;0.512;2023-11-19T13:04:21;2.53;;;1.83;;
77788;SDS011;70537;44.384;0.512;2023-11-19T13:06:47;2.88;;;1.60;;
77788;SDS011;70537;44.384;0.512;2023-11-19T13:09:25;2.25;;;1.48;;
77788;SDS011;70537;44.384;0.512;2023-11-19T13:11:51;2.25;;;1.50;;
77788;SDS011;70537;44.384;0.512;2023-11-19T13:14:17;2.50;;;1.70;;
77788;SDS011;70537;44.384;0.512;2023-11-19T13:16:43;2.45;;;1.33;;
77788;SDS011;70537;44.384;0.512;2023-11-19T13:19:10;2.22;;;1.65;;
77788;SDS011;70537;44.384;0.512;2023-11-19T13:21:36;3.90;;;1.75;;
77788;SDS011;70537;44.384;0.512;2023-11-19T13:24:02;3.25;;;1.55;;
77788;SDS011;70537;44.384;0.512;2023-11-19T13:26:28;4.05;;;1.40;;
77788;SDS011;70537;44.384;0.512;2023-11-19T13:28:53;4.25;;;1.50;;
77788;SDS011;70537;44.384;0.512;2023-11-19T13:31:19;1.95;;;1.20;;
77788;SDS011;70537;44.384;0.512;2023-11-19T13:33:44;2.80;;;1.45;;
77788;SDS011;70537;44.384;0.512;2023-11-19T13:36:10;2.70;;;1.10;;
77788;SDS011;70537;44.384;0.512;2023-11-19T13:38:35;2.58;;;1.60;;
77788;SDS011;70537;44.384;0.512;2023-11-19T13:41:01;3.45;;;1.23;;
77788;SDS011;70537;44.384;0.512;2023-11-19T13:43:27;3.15;;;1.25;;
77788;SDS011;70537;44.384;0.512;2023-11-19T13:45:55;3.55;;;1.17;;
77788;SDS011;70537;44.384;0.512;2023-11-19T13:48:20;2.83;;;1.45;;
77788;SDS011;70537;44.384;0.512;2023-11-19T13:50:46;2.83;;;1.10;;
77788;SDS011;70537;44.384;0.512;2023-11-19T13:53:11;2.22;;;1.25;;
77788;SDS011;70537;44.384;0.512;2023-11-19T13:55:37;4.95;;;1.38;;
77788;SDS011;70537;44.384;0.512;2023-11-19T13:58:03;1.85;;;1.40;;
77788;SDS011;70537;44.384;0.512;2023-11-19T14:00:29;1.92;;;0.90;;
77788;SDS011;70537;44.384;0.512;2023-11-19T14:02:54;3.25;;;1.27;;
77788;SDS011;70537;44.384;0.512;2023-11-19T14:05:19;2.03;;;1.08;;
77788;SDS011;70537;44.384;0.512;2023-11-19T14:07:45;5.15;;;1.38;;
77788;SDS011;70537;44.384;0.512;2023-11-19T14:10:13;4.70;;;1.65;;
77788;SDS011;70537;44.384;0.512;2023-11-19T14:12:39;2.00;;;1.83;;
77788;SDS011;70537;44.384;0.512;2023-11-19T14:15:05;5.60;;;1.27;;
77788;SDS011;70537;44.384;0.512;2023-11-19T14:17:34;3.10;;;1.23;;
77788;SDS011;70537;44.384;0.512;2023-11-19T14:20:00;2.65;;;1.23;;
77788;SDS011;70537;44.384;0.512;2023-11-19T14:22:25;2.55;;;1.10;;
77788;SDS011;70537;44.384;0.512;2023-11-19T14:24:51;2.40;;;1.35;;
77788;SDS011;70537;44.384;0.512;2023-11-19T14:27:16;2.25;;;1.10;;
77788;SDS011;70537;44.384;0.512;2023-11-19T14:29:44;1.70;;;1.13;;
77788;SDS011;70537;44.384;0.512;2023-11-19T14:32:10;4.72;;;1.35;;
77788;SDS011;70537;44.384;0.512;2023-11-19T14:34:36;3.85;;;1.20;;
77788;SDS011;70537;44.384;0.512;2023-11-19T14:37:01;2.28;;;1.08;;
77788;SDS011;70537;44.384;0.512;2023-11-19T14:39:27;2.30;;;1.35;;
77788;SDS011;70537;44.384;0.512;2023-11-19T14:41:52;3.10;;;1.00;;
77788;SDS011;70537;44.384;0.512;2023-11-19T14:44:19;1.63;;;1.17;;
77788;SDS011;70537;44.384;0.512;2023-11-19T14:46:45;3.40;;;1.15;;
77788;SDS011;70537;44.384;0.512;2023-11-19T14:49:11;1.80;;;1.23;;
77788;SDS011;70537;44.384;0.512;2023-11-19T14:51:37;2.55;;;1.58;;
77788;SDS011;70537;44.384;0.512;2023-11-19T14:54:03;2.70;;;1.52;;
77788;SDS011;70537;44.384;0.512;2023-11-19T14:56:28;2.83;;;1.30;;
77788;SDS011;70537;44.384;0.512;2023-11-19T14:58:53;5.32;;;1.50;;
77788;SDS011;70537;44.384;0.512;2023-11-19T15:01:19;4.45;;;0.93;;
77788;SDS011;70537;44.384;0.512;2023-11-19T15:03:44;2.83;;;1.20;;
77788;SDS011;70537;44.384;0.512;2023-11-19T15:06:10;3.88;;;1.20;;
77788;SDS011;70537;44.384;0.512;2023-11-19T15:08:36;2.17;;;1.15;;
77788;SDS011;70537;44.384;0.512;2023-11-19T15:11:02;6.03;;;1.38;;
77788;SDS011;70537;44.384;0.512;2023-11-19T15:13:27;3.50;;;1.20;;